sensor_id;sensor_type;location;lat;lon;timestamp;P1;durP1;ratioP1;P2;durP2;ratioP2
64609;SDS011;51019;46.090;6.350;2023-05-20T00:01:23;16.48;;;7.10;;
64609;SDS011;51019;46.090;6.350;2023-05-20T00:03:50;17.27;;;7.57;;
64609;SDS011;51019;46.090;6.350;2023-05-20T00:06:18;15.75;;;7.70;;
64609;SDS011;51019;46.090;6.350;2023-05-20T00:08:45;17.67;;;7.93;;
64609;SDS011;51019;46.090;6.350;2023-05-20T00:11:13;16.77;;;7.63;;
64609;SDS011;51019;46.090;6.350;2023-05-20T00:13:40;17.50;;;7.50;;
64609;SDS011;51019;46.090;6.350;2023-05-20T00:16:09;15.68;;;7.57;;
64609;SDS011;51019;46.090;6.350;2023-05-20T00:18:37;19.88;;;7.57;;
64609;SDS011;51019;46.090;6.350;2023-05-20T00:21:04;16.75;;;6.43;;
64609;SDS011;51019;46.090;6.350;2023-05-20T00:23:32;17.70;;;7.07;;
64609;SDS011;51019;46.090;6.350;2023-05-20T00:25:59;16.88;;;7.47;;
64609;SDS011;51019;46.090;6.350;2023-05-20T00:28:26;17.42;;;7.25;;
64609;SDS011;51019;46.090;6.350;2023-05-20T00:30:54;16.85;;;7.85;;
64609;SDS011;51019;46.090;6.350;2023-05-20T00:33:24;19.45;;;8.50;;
64609;SDS011;51019;46.090;6.350;2023-05-20T00:35:51;15.93;;;7.22;;
64609;SDS011;51019;46.090;6.350;2023-05-20T00:38:18;17.17;;;7.57;;
64609;SDS011;51019;46.090;6.350;2023-05-20T00:40:46;16.38;;;7.60;;
64609;SDS011;51019;46.090;6.350;2023-05-20T00:43:13;17.33;;;6.53;;
64609;SDS011;51019;46.090;6.350;2023-05-20T00:45:40;14.95;;;7.03;;
64609;SDS011;51019;46.090;6.350;2023-05-20T00:48:08;18.38;;;7.47;;
64609;SDS011;51019;46.090;6.350;2023-05-20T00:50:37;17.70;;;7.68;;
64609;SDS011;51019;46.090;6.350;2023-05-20T00:53:06;15.48;;;7.18;;
64609;SDS011;51019;46.090;6.350;2023-05-20T00:55:34;16.85;;;7.70;;
64609;SDS011;51019;46.090;6.350;2023-05-20T00:58:03;15.88;;;7.40;;
64609;SDS011;51019;46.090;6.350;2023-05-20T01:00:30;16.42;;;7.47;;
64609;SDS011;51019;46.090;6.350;2023-05-20T01:02:57;16.00;;;7.75;;
64609;SDS011;51019;46.090;6.350;2023-05-20T01:05:25;16.75;;;8.35;;
64609;SDS011;51019;46.090;6.350;2023-05-20T01:07:54;16.42;;;7.97;;
64609;SDS011;51019;46.090;6.350;2023-05-20T01:10:21;17.50;;;7.35;;
64609;SDS011;51019;46.090;6.350;2023-05-20T01:12:52;16.30;;;7.55;;
64609;SDS011;51019;46.090;6.350;2023-05-20T01:15:22;17.20;;;7.50;;
64609;SDS011;51019;46.090;6.350;2023-05-20T01:17:51;15.50;;;7.90;;
64609;SDS011;51019;46.090;6.350;2023-05-20T01:20:25;16.10;;;7.10;;
64609;SDS011;51019;46.090;6.350;2023-05-20T01:22:58;19.13;;;7.90;;
64609;SDS011;51019;46.090;6.350;2023-05-20T01:25:25;17.73;;;7.20;;
64609;SDS011;51019;46.090;6.350;2023-05-20T01:27:53;18.33;;;7.72;;
64609;SDS011;51019;46.090;6.350;2023-05-20T01:30:23;17.15;;;8.02;;
64609;SDS011;51019;46.090;6.350;2023-05-20T01:32:57;15.70;;;7.32;;
64609;SDS011;51019;46.090;6.350;2023-05-20T01:35:27;15.93;;;7.38;;
64609;SDS011;51019;46.090;6.350;2023-05-20T01:37:55;19.30;;;8.75;;
64609;SDS011;51019;46.090;6.350;2023-05-20T01:40:26;17.17;;;7.13;;
64609;SDS011;51019;46.090;6.350;2023-05-20T01:42:54;18.08;;;7.78;;
64609;SDS011;51019;46.090;6.350;2023-05-20T01:45:24;15.23;;;7.22;;
64609;SDS011;51019;46.090;6.350;2023-05-20T01:47:51;16.08;;;7.60;;
64609;SDS011;51019;46.090;6.350;2023-05-20T01:50:20;16.65;;;7.43;;
64609;SDS011;51019;46.090;6.350;2023-05-20T01:52:47;17.95;;;7.63;;
64609;SDS011;51019;46.090;6.350;2023-05-20T01:55:16;16.75;;;7.55;;
64609;SDS011;51019;46.090;6.350;2023-05-20T01:57:43;15.68;;;7.72;;
64609;SDS011;51019;46.090;6.350;2023-05-20T02:00:11;18.10;;;7.93;;
64609;SDS011;51019;46.090;6.350;2023-05-20T02:02:39;18.77;;;7.68;;
64609;SDS011;51019;46.090;6.350;2023-05-20T02:05:06;16.27;;;7.90;;
64609;SDS011;51019;46.090;6.350;2023-05-20T02:07:34;18.13;;;7.35;;
64609;SDS011;51019;46.090;6.350;2023-05-20T02:10:02;18.08;;;7.45;;
64609;SDS011;51019;46.090;6.350;2023-05-20T02:12:32;14.82;;;6.72;;
64609;SDS011;51019;46.090;6.350;2023-05-20T02:14:59;15.60;;;7.05;;
64609;SDS011;51019;46.090;6.350;2023-05-20T02:17:27;15.50;;;6.82;;
64609;SDS011;51019;46.090;6.350;2023-05-20T02:19:54;16.27;;;6.90;;
64609;SDS011;51019;46.090;6.350;2023-05-20T02:22:22;16.45;;;6.80;;
64609;SDS011;51019;46.090;6.350;2023-05-20T02:24:49;16.13;;;6.68;;
64609;SDS011;51019;46.090;6.350;2023-05-20T02:27:16;18.63;;;7.03;;
64609;SDS011;51019;46.090;6.350;2023-05-20T02:29:46;16.27;;;7.28;;
64609;SDS011;51019;46.090;6.350;2023-05-20T02:32:13;15.02;;;6.95;;
64609;SDS011;51019;46.090;6.350;2023-05-20T02:34:40;19.80;;;7.35;;
64609;SDS011;51019;46.090;6.350;2023-05-20T02:37:08;15.93;;;6.95;;
64609;SDS011;51019;46.090;6.350;2023-05-20T02:39:35;14.65;;;7.18;;
64609;SDS011;51019;46.090;6.350;2023-05-20T02:42:02;16.90;;;7.82;;
64609;SDS011;51019;46.090;6.350;2023-05-20T02:44:30;18.30;;;8.07;;
64609;SDS011;51019;46.090;6.350;2023-05-20T02:46:59;17.55;;;7.70;;
64609;SDS011;51019;46.090;6.350;2023-05-20T02:49:26;14.93;;;6.93;;
64609;SDS011;51019;46.090;6.350;2023-05-20T02:51:54;16.05;;;7.78;;
64609;SDS011;51019;46.090;6.350;2023-05-20T02:54:21;16.15;;;7.13;;
64609;SDS011;51019;46.090;6.350;2023-05-20T02:56:48;15.63;;;6.82;;
64609;SDS011;51019;46.090;6.350;2023-05-20T02:59:15;15.52;;;7.28;;
64609;SDS011;51019;46.090;6.350;2023-05-20T03:01:43;17.70;;;7.53;;
64609;SDS011;51019;46.090;6.350;2023-05-20T03:04:12;19.38;;;7.25;;
64609;SDS011;51019;46.090;6.350;2023-05-20T03:06:40;17.80;;;6.97;;
64609;SDS011;51019;46.090;6.350;2023-05-20T03:09:08;17.05;;;7.00;;
64609;SDS011;51019;46.090;6.350;2023-05-20T03:11:36;18.48;;;8.07;;
64609;SDS011;51019;46.090;6.350;2023-05-20T03:14:03;17.67;;;7.93;;
64609;SDS011;51019;46.090;6.350;2023-05-20T03:16:30;18.92;;;8.00;;
64609;SDS011;51019;46.090;6.350;2023-05-20T03:18:59;16.05;;;7.15;;
64609;SDS011;51019;46.090;6.350;2023-05-20T03:21:29;17.65;;;7.28;;
64609;SDS011;51019;46.090;6.350;2023-05-20T03:23:58;16.38;;;7.32;;
64609;SDS011;51019;46.090;6.350;2023-05-20T03:26:25;17.17;;;7.00;;
64609;SDS011;51019;46.090;6.350;2023-05-20T03:28:53;17.02;;;7.75;;
64609;SDS011;51019;46.090;6.350;2023-05-20T03:31:20;17.40;;;7.70;;
64609;SDS011;51019;46.090;6.350;2023-05-20T03:33:50;19.40;;;8.23;;
64609;SDS011;51019;46.090;6.350;2023-05-20T03:36:17;19.38;;;8.45;;
64609;SDS011;51019;46.090;6.350;2023-05-20T03:38:46;17.63;;;7.47;;
64609;SDS011;51019;46.090;6.350;2023-05-20T03:41:13;17.10;;;8.15;;
64609;SDS011;51019;46.090;6.350;2023-05-20T03:43:41;17.08;;;7.45;;
64609;SDS011;51019;46.090;6.350;2023-05-20T03:46:08;18.40;;;8.40;;
64609;SDS011;51019;46.090;6.350;2023-05-20T03:48:36;17.70;;;7.93;;
64609;SDS011;51019;46.090;6.350;2023-05-20T03:51:05;16.85;;;8.13;;
64609;SDS011;51019;46.090;6.350;2023-05-20T03:53:33;16.40;;;7.40;;
64609;SDS011;51019;46.090;6.350;2023-05-20T03:56:03;16.17;;;7.72;;
64609;SDS011;51019;46.090;6.350;2023-05-20T03:58:31;16.73;;;7.72;;
64609;SDS011;51019;46.090;6.350;2023-05-20T04:00:59;17.73;;;8.20;;
64609;SDS011;51019;46.090;6.350;2023-05-20T04:03:26;18.15;;;7.82;;
64609;SDS011;51019;46.090;6.350;2023-05-20T04:05:54;17.08;;;7.25;;
64609;SDS011;51019;46.090;6.350;2023-05-20T04:08:21;16.08;;;7.82;;
64609;SDS011;51019;46.090;6.350;2023-05-20T04:10:50;17.48;;;7.97;;
64609;SDS011;51019;46.090;6.350;2023-05-20T04:13:19;18.90;;;8.27;;
64609;SDS011;51019;46.090;6.350;2023-05-20T04:15:46;16.60;;;8.07;;
64609;SDS011;51019;46.090;6.350;2023-05-20T04:18:13;17.88;;;7.65;;
64609;SDS011;51019;46.090;6.350;2023-05-20T04:20:41;15.75;;;7.20;;
64609;SDS011;51019;46.090;6.350;2023-05-20T04:23:08;16.67;;;7.47;;
64609;SDS011;51019;46.090;6.350;2023-05-20T04:25:36;18.05;;;7.72;;
64609;SDS011;51019;46.090;6.350;2023-05-20T04:28:05;17.02;;;7.97;;
64609;SDS011;51019;46.090;6.350;2023-05-20T04:30:35;18.98;;;7.78;;
64609;SDS011;51019;46.090;6.350;2023-05-20T04:33:02;19.73;;;8.88;;
64609;SDS011;51019;46.090;6.350;2023-05-20T04:35:30;20.55;;;8.32;;
64609;SDS011;51019;46.090;6.350;2023-05-20T04:37:59;17.65;;;9.00;;
64609;SDS011;51019;46.090;6.350;2023-05-20T04:40:26;19.90;;;9.02;;
64609;SDS011;51019;46.090;6.350;2023-05-20T04:42:53;19.63;;;9.48;;
64609;SDS011;51019;46.090;6.350;2023-05-20T04:45:22;18.48;;;8.70;;
64609;SDS011;51019;46.090;6.350;2023-05-20T04:47:52;20.45;;;8.40;;
64609;SDS011;51019;46.090;6.350;2023-05-20T04:50:20;18.23;;;8.18;;
64609;SDS011;51019;46.090;6.350;2023-05-20T04:52:47;18.52;;;7.85;;
64609;SDS011;51019;46.090;6.350;2023-05-20T04:55:15;16.52;;;8.10;;
64609;SDS011;51019;46.090;6.350;2023-05-20T04:57:43;17.10;;;7.82;;
64609;SDS011;51019;46.090;6.350;2023-05-20T05:00:11;17.27;;;8.35;;
64609;SDS011;51019;46.090;6.350;2023-05-20T05:02:40;16.70;;;7.85;;
64609;SDS011;51019;46.090;6.350;2023-05-20T05:05:09;17.30;;;8.07;;
64609;SDS011;51019;46.090;6.350;2023-05-20T05:07:37;17.92;;;8.55;;
64609;SDS011;51019;46.090;6.350;2023-05-20T05:10:04;16.38;;;7.47;;
64609;SDS011;51019;46.090;6.350;2023-05-20T05:12:32;17.10;;;7.90;;
64609;SDS011;51019;46.090;6.350;2023-05-20T05:14:59;15.40;;;8.05;;
64609;SDS011;51019;46.090;6.350;2023-05-20T05:17:27;20.05;;;8.20;;
64609;SDS011;51019;46.090;6.350;2023-05-20T05:19:54;17.45;;;8.27;;
64609;SDS011;51019;46.090;6.350;2023-05-20T05:22:25;17.30;;;8.18;;
64609;SDS011;51019;46.090;6.350;2023-05-20T05:24:52;21.70;;;8.50;;
64609;SDS011;51019;46.090;6.350;2023-05-20T05:27:20;19.30;;;8.15;;
64609;SDS011;51019;46.090;6.350;2023-05-20T05:29:49;17.05;;;7.72;;
64609;SDS011;51019;46.090;6.350;2023-05-20T05:32:16;20.52;;;8.32;;
64609;SDS011;51019;46.090;6.350;2023-05-20T05:34:43;15.73;;;7.47;;
64609;SDS011;51019;46.090;6.350;2023-05-20T05:37:11;21.73;;;8.88;;
64609;SDS011;51019;46.090;6.350;2023-05-20T05:39:41;17.38;;;8.25;;
64609;SDS011;51019;46.090;6.350;2023-05-20T05:42:08;19.45;;;8.32;;
64609;SDS011;51019;46.090;6.350;2023-05-20T05:44:35;21.00;;;8.48;;
64609;SDS011;51019;46.090;6.350;2023-05-20T05:47:03;22.23;;;8.05;;
64609;SDS011;51019;46.090;6.350;2023-05-20T05:49:31;16.70;;;8.02;;
64609;SDS011;51019;46.090;6.350;2023-05-20T05:51:59;17.23;;;8.38;;
64609;SDS011;51019;46.090;6.350;2023-05-20T05:54:26;16.70;;;8.52;;
64609;SDS011;51019;46.090;6.350;2023-05-20T05:56:56;19.35;;;10.20;;
64609;SDS011;51019;46.090;6.350;2023-05-20T05:59:24;18.80;;;9.60;;
64609;SDS011;51019;46.090;6.350;2023-05-20T06:01:51;17.30;;;9.18;;
64609;SDS011;51019;46.090;6.350;2023-05-20T06:04:21;17.50;;;9.07;;
64609;SDS011;51019;46.090;6.350;2023-05-20T06:06:48;19.20;;;8.85;;
64609;SDS011;51019;46.090;6.350;2023-05-20T06:09:15;20.02;;;9.15;;
64609;SDS011;51019;46.090;6.350;2023-05-20T06:11:43;19.85;;;9.65;;
64609;SDS011;51019;46.090;6.350;2023-05-20T06:14:12;18.02;;;9.40;;
64609;SDS011;51019;46.090;6.350;2023-05-20T06:16:41;20.15;;;8.48;;
64609;SDS011;51019;46.090;6.350;2023-05-20T06:19:08;20.63;;;9.77;;
64609;SDS011;51019;46.090;6.350;2023-05-20T06:21:36;19.98;;;9.40;;
64609;SDS011;51019;46.090;6.350;2023-05-20T06:24:03;21.73;;;9.38;;
64609;SDS011;51019;46.090;6.350;2023-05-20T06:26:31;22.00;;;9.40;;
64609;SDS011;51019;46.090;6.350;2023-05-20T06:28:58;20.05;;;9.65;;
64609;SDS011;51019;46.090;6.350;2023-05-20T06:31:27;19.55;;;9.75;;
64609;SDS011;51019;46.090;6.350;2023-05-20T06:33:55;19.52;;;9.98;;
64609;SDS011;51019;46.090;6.350;2023-05-20T06:36:22;19.55;;;9.23;;
64609;SDS011;51019;46.090;6.350;2023-05-20T06:38:49;20.20;;;9.85;;
64609;SDS011;51019;46.090;6.350;2023-05-20T06:41:18;21.65;;;9.38;;
64609;SDS011;51019;46.090;6.350;2023-05-20T06:43:47;20.20;;;10.10;;
64609;SDS011;51019;46.090;6.350;2023-05-20T06:46:15;18.38;;;9.05;;
64609;SDS011;51019;46.090;6.350;2023-05-20T06:48:46;20.10;;;9.73;;
64609;SDS011;51019;46.090;6.350;2023-05-20T06:51:14;18.50;;;8.90;;
64609;SDS011;51019;46.090;6.350;2023-05-20T06:53:41;21.05;;;10.70;;
64609;SDS011;51019;46.090;6.350;2023-05-20T06:56:09;18.75;;;9.63;;
64609;SDS011;51019;46.090;6.350;2023-05-20T06:58:36;20.27;;;9.98;;
64609;SDS011;51019;46.090;6.350;2023-05-20T07:01:03;21.63;;;10.23;;
64609;SDS011;51019;46.090;6.350;2023-05-20T07:03:31;18.52;;;9.57;;
64609;SDS011;51019;46.090;6.350;2023-05-20T07:06:00;21.35;;;9.93;;
64609;SDS011;51019;46.090;6.350;2023-05-20T07:08:27;18.65;;;9.20;;
64609;SDS011;51019;46.090;6.350;2023-05-20T07:10:55;17.83;;;9.40;;
64609;SDS011;51019;46.090;6.350;2023-05-20T07:13:24;18.42;;;9.27;;
64609;SDS011;51019;46.090;6.350;2023-05-20T07:15:51;17.95;;;9.30;;
64609;SDS011;51019;46.090;6.350;2023-05-20T07:18:19;19.35;;;9.63;;
64609;SDS011;51019;46.090;6.350;2023-05-20T07:20:46;18.08;;;10.02;;
64609;SDS011;51019;46.090;6.350;2023-05-20T07:23:15;18.70;;;9.55;;
64609;SDS011;51019;46.090;6.350;2023-05-20T07:25:43;18.30;;;9.38;;
64609;SDS011;51019;46.090;6.350;2023-05-20T07:28:10;19.27;;;9.85;;
64609;SDS011;51019;46.090;6.350;2023-05-20T07:30:37;20.00;;;9.48;;
64609;SDS011;51019;46.090;6.350;2023-05-20T07:33:05;17.80;;;8.95;;
64609;SDS011;51019;46.090;6.350;2023-05-20T07:35:32;22.67;;;9.43;;
64609;SDS011;51019;46.090;6.350;2023-05-20T07:38:00;20.02;;;9.43;;
64609;SDS011;51019;46.090;6.350;2023-05-20T07:40:29;20.33;;;9.68;;
64609;SDS011;51019;46.090;6.350;2023-05-20T07:42:56;19.33;;;10.00;;
64609;SDS011;51019;46.090;6.350;2023-05-20T07:45:23;18.58;;;10.32;;
64609;SDS011;51019;46.090;6.350;2023-05-20T07:47:51;18.80;;;9.02;;
64609;SDS011;51019;46.090;6.350;2023-05-20T07:50:19;18.13;;;8.38;;
64609;SDS011;51019;46.090;6.350;2023-05-20T07:52:47;17.60;;;9.07;;
64609;SDS011;51019;46.090;6.350;2023-05-20T07:55:14;18.40;;;8.98;;
64609;SDS011;51019;46.090;6.350;2023-05-20T07:57:44;17.80;;;8.88;;
64609;SDS011;51019;46.090;6.350;2023-05-20T08:00:12;21.38;;;9.40;;
64609;SDS011;51019;46.090;6.350;2023-05-20T08:02:40;20.63;;;9.40;;
64609;SDS011;51019;46.090;6.350;2023-05-20T08:05:07;19.45;;;8.93;;
64609;SDS011;51019;46.090;6.350;2023-05-20T08:07:35;20.90;;;10.15;;
64609;SDS011;51019;46.090;6.350;2023-05-20T08:10:02;20.60;;;9.50;;
64609;SDS011;51019;46.090;6.350;2023-05-20T08:12:30;18.48;;;9.30;;
64609;SDS011;51019;46.090;6.350;2023-05-20T08:14:59;18.20;;;8.93;;
64609;SDS011;51019;46.090;6.350;2023-05-20T08:17:26;22.42;;;8.75;;
64609;SDS011;51019;46.090;6.350;2023-05-20T08:19:54;16.42;;;8.20;;
64609;SDS011;51019;46.090;6.350;2023-05-20T08:22:21;18.23;;;8.95;;
64609;SDS011;51019;46.090;6.350;2023-05-20T08:24:48;16.75;;;8.73;;
64609;SDS011;51019;46.090;6.350;2023-05-20T08:27:16;17.27;;;8.88;;
64609;SDS011;51019;46.090;6.350;2023-05-20T08:29:43;16.50;;;8.43;;
64609;SDS011;51019;46.090;6.350;2023-05-20T08:32:12;17.45;;;8.80;;
64609;SDS011;51019;46.090;6.350;2023-05-20T08:34:40;19.67;;;8.88;;
64609;SDS011;51019;46.090;6.350;2023-05-20T08:37:07;20.80;;;9.35;;
64609;SDS011;51019;46.090;6.350;2023-05-20T08:39:34;20.92;;;9.32;;
64609;SDS011;51019;46.090;6.350;2023-05-20T08:42:01;17.75;;;9.13;;
64609;SDS011;51019;46.090;6.350;2023-05-20T08:44:31;20.45;;;9.65;;
64609;SDS011;51019;46.090;6.350;2023-05-20T08:46:59;18.20;;;8.43;;
64609;SDS011;51019;46.090;6.350;2023-05-20T08:49:32;20.83;;;9.35;;
64609;SDS011;51019;46.090;6.350;2023-05-20T08:51:59;17.83;;;8.63;;
64609;SDS011;51019;46.090;6.350;2023-05-20T08:54:32;16.55;;;7.75;;
64609;SDS011;51019;46.090;6.350;2023-05-20T08:57:09;18.55;;;8.32;;
64609;SDS011;51019;46.090;6.350;2023-05-20T08:59:39;16.13;;;8.07;;
64609;SDS011;51019;46.090;6.350;2023-05-20T09:02:09;18.45;;;8.90;;
64609;SDS011;51019;46.090;6.350;2023-05-20T09:04:38;19.58;;;9.13;;
64609;SDS011;51019;46.090;6.350;2023-05-20T09:07:06;19.65;;;8.88;;
64609;SDS011;51019;46.090;6.350;2023-05-20T09:09:34;17.83;;;8.35;;
64609;SDS011;51019;46.090;6.350;2023-05-20T09:12:02;18.83;;;9.20;;
64609;SDS011;51019;46.090;6.350;2023-05-20T09:14:30;20.08;;;8.93;;
64609;SDS011;51019;46.090;6.350;2023-05-20T09:16:58;18.20;;;8.30;;
64609;SDS011;51019;46.090;6.350;2023-05-20T09:19:26;17.63;;;8.25;;
64609;SDS011;51019;46.090;6.350;2023-05-20T09:21:55;17.40;;;8.13;;
64609;SDS011;51019;46.090;6.350;2023-05-20T09:24:22;18.73;;;8.02;;
64609;SDS011;51019;46.090;6.350;2023-05-20T09:26:52;17.95;;;7.93;;
64609;SDS011;51019;46.090;6.350;2023-05-20T09:29:20;16.35;;;7.70;;
64609;SDS011;51019;46.090;6.350;2023-05-20T09:31:48;16.08;;;7.85;;
64609;SDS011;51019;46.090;6.350;2023-05-20T09:34:16;14.90;;;6.97;;
64609;SDS011;51019;46.090;6.350;2023-05-20T09:36:43;16.02;;;7.35;;
64609;SDS011;51019;46.090;6.350;2023-05-20T09:39:13;16.77;;;7.45;;
64609;SDS011;51019;46.090;6.350;2023-05-20T09:41:51;15.68;;;7.70;;
64609;SDS011;51019;46.090;6.350;2023-05-20T09:44:28;15.55;;;7.22;;
64609;SDS011;51019;46.090;6.350;2023-05-20T09:46:56;16.48;;;7.57;;
64609;SDS011;51019;46.090;6.350;2023-05-20T09:49:23;15.88;;;7.55;;
64609;SDS011;51019;46.090;6.350;2023-05-20T09:51:52;16.55;;;7.03;;
64609;SDS011;51019;46.090;6.350;2023-05-20T09:54:23;14.80;;;6.32;;
64609;SDS011;51019;46.090;6.350;2023-05-20T09:56:52;15.85;;;6.68;;
64609;SDS011;51019;46.090;6.350;2023-05-20T09:59:21;15.35;;;6.90;;
64609;SDS011;51019;46.090;6.350;2023-05-20T10:01:50;14.65;;;6.70;;
64609;SDS011;51019;46.090;6.350;2023-05-20T10:04:18;13.32;;;5.95;;
64609;SDS011;51019;46.090;6.350;2023-05-20T10:06:53;14.70;;;6.60;;
64609;SDS011;51019;46.090;6.350;2023-05-20T10:09:41;16.10;;;6.45;;
64609;SDS011;51019;46.090;6.350;2023-05-20T10:12:18;13.80;;;6.93;;
64609;SDS011;51019;46.090;6.350;2023-05-20T10:14:54;16.17;;;6.57;;
64609;SDS011;51019;46.090;6.350;2023-05-20T10:17:30;15.35;;;6.30;;
64609;SDS011;51019;46.090;6.350;2023-05-20T10:20:09;14.98;;;6.80;;
64609;SDS011;51019;46.090;6.350;2023-05-20T10:22:38;14.23;;;6.43;;
64609;SDS011;51019;46.090;6.350;2023-05-20T10:25:10;16.48;;;6.82;;
64609;SDS011;51019;46.090;6.350;2023-05-20T10:27:42;15.90;;;6.50;;
64609;SDS011;51019;46.090;6.350;2023-05-20T10:30:17;15.53;;;6.80;;
64609;SDS011;51019;46.090;6.350;2023-05-20T10:32:48;16.80;;;6.82;;
64609;SDS011;51019;46.090;6.350;2023-05-20T10:35:20;14.68;;;6.70;;
64609;SDS011;51019;46.090;6.350;2023-05-20T10:37:50;14.30;;;6.53;;
64609;SDS011;51019;46.090;6.350;2023-05-20T10:40:21;14.98;;;6.43;;
64609;SDS011;51019;46.090;6.350;2023-05-20T10:42:49;15.70;;;6.68;;
64609;SDS011;51019;46.090;6.350;2023-05-20T10:45:24;14.27;;;6.03;;
64609;SDS011;51019;46.090;6.350;2023-05-20T10:47:53;13.55;;;6.15;;
64609;SDS011;51019;46.090;6.350;2023-05-20T10:50:25;14.02;;;6.68;;
64609;SDS011;51019;46.090;6.350;2023-05-20T10:52:54;15.75;;;7.15;;
64609;SDS011;51019;46.090;6.350;2023-05-20T10:55:37;14.68;;;6.35;;
64609;SDS011;51019;46.090;6.350;2023-05-20T10:58:05;16.38;;;6.50;;
64609;SDS011;51019;46.090;6.350;2023-05-20T11:00:33;15.00;;;7.18;;
64609;SDS011;51019;46.090;6.350;2023-05-20T11:03:01;14.85;;;7.55;;
64609;SDS011;51019;46.090;6.350;2023-05-20T11:05:29;16.33;;;6.38;;
64609;SDS011;51019;46.090;6.350;2023-05-20T11:08:01;14.32;;;6.90;;
64609;SDS011;51019;46.090;6.350;2023-05-20T11:10:30;15.80;;;7.43;;
64609;SDS011;51019;46.090;6.350;2023-05-20T11:13:02;15.38;;;6.90;;
64609;SDS011;51019;46.090;6.350;2023-05-20T11:15:30;15.32;;;7.07;;
64609;SDS011;51019;46.090;6.350;2023-05-20T11:17:59;16.20;;;7.10;;
64609;SDS011;51019;46.090;6.350;2023-05-20T11:20:27;16.65;;;7.15;;
64609;SDS011;51019;46.090;6.350;2023-05-20T11:22:59;14.82;;;7.05;;
64609;SDS011;51019;46.090;6.350;2023-05-20T11:25:28;16.73;;;7.43;;
64609;SDS011;51019;46.090;6.350;2023-05-20T11:27:55;15.15;;;7.57;;
64609;SDS011;51019;46.090;6.350;2023-05-20T11:30:25;17.08;;;7.05;;
64609;SDS011;51019;46.090;6.350;2023-05-20T11:32:56;14.07;;;6.47;;
64609;SDS011;51019;46.090;6.350;2023-05-20T11:35:25;13.85;;;6.50;;
64609;SDS011;51019;46.090;6.350;2023-05-20T11:37:55;12.93;;;6.18;;
64609;SDS011;51019;46.090;6.350;2023-05-20T11:40:23;13.90;;;6.13;;
64609;SDS011;51019;46.090;6.350;2023-05-20T11:42:54;14.98;;;6.60;;
64609;SDS011;51019;46.090;6.350;2023-05-20T11:45:22;13.88;;;5.97;;
64609;SDS011;51019;46.090;6.350;2023-05-20T11:47:59;14.23;;;6.22;;
64609;SDS011;51019;46.090;6.350;2023-05-20T11:50:33;14.20;;;6.55;;
64609;SDS011;51019;46.090;6.350;2023-05-20T11:53:03;15.63;;;6.60;;
64609;SDS011;51019;46.090;6.350;2023-05-20T11:55:32;13.60;;;6.22;;
64609;SDS011;51019;46.090;6.350;2023-05-20T11:58:00;15.27;;;7.22;;
64609;SDS011;51019;46.090;6.350;2023-05-20T12:00:29;14.18;;;6.47;;
64609;SDS011;51019;46.090;6.350;2023-05-20T12:02:59;15.35;;;6.57;;
64609;SDS011;51019;46.090;6.350;2023-05-20T12:05:26;14.38;;;6.47;;
64609;SDS011;51019;46.090;6.350;2023-05-20T12:07:54;14.45;;;6.45;;
64609;SDS011;51019;46.090;6.350;2023-05-20T12:10:21;14.80;;;6.28;;
64609;SDS011;51019;46.090;6.350;2023-05-20T12:12:49;15.00;;;6.82;;
64609;SDS011;51019;46.090;6.350;2023-05-20T12:15:16;14.38;;;7.05;;
64609;SDS011;51019;46.090;6.350;2023-05-20T12:17:45;14.50;;;6.63;;
64609;SDS011;51019;46.090;6.350;2023-05-20T12:20:16;14.70;;;6.50;;
64609;SDS011;51019;46.090;6.350;2023-05-20T12:22:45;13.87;;;6.10;;
64609;SDS011;51019;46.090;6.350;2023-05-20T12:25:14;15.02;;;6.15;;
64609;SDS011;51019;46.090;6.350;2023-05-20T12:27:43;16.08;;;6.53;;
64609;SDS011;51019;46.090;6.350;2023-05-20T12:30:13;14.00;;;6.38;;
64609;SDS011;51019;46.090;6.350;2023-05-20T12:32:42;15.90;;;6.80;;
64609;SDS011;51019;46.090;6.350;2023-05-20T12:35:09;14.57;;;6.25;;
64609;SDS011;51019;46.090;6.350;2023-05-20T12:37:39;15.55;;;6.32;;
64609;SDS011;51019;46.090;6.350;2023-05-20T12:40:08;14.55;;;6.80;;
64609;SDS011;51019;46.090;6.350;2023-05-20T12:42:37;14.20;;;6.47;;
64609;SDS011;51019;46.090;6.350;2023-05-20T12:45:06;15.90;;;6.55;;
64609;SDS011;51019;46.090;6.350;2023-05-20T12:47:34;14.32;;;6.10;;
64609;SDS011;51019;46.090;6.350;2023-05-20T12:50:02;15.05;;;6.45;;
64609;SDS011;51019;46.090;6.350;2023-05-20T12:52:31;16.90;;;7.28;;
64609;SDS011;51019;46.090;6.350;2023-05-20T12:55:01;16.35;;;6.80;;
64609;SDS011;51019;46.090;6.350;2023-05-20T12:57:29;16.70;;;7.15;;
64609;SDS011;51019;46.090;6.350;2023-05-20T12:59:57;14.55;;;6.00;;
64609;SDS011;51019;46.090;6.350;2023-05-20T13:02:24;14.02;;;6.35;;
64609;SDS011;51019;46.090;6.350;2023-05-20T13:04:52;14.18;;;6.32;;
64609;SDS011;51019;46.090;6.350;2023-05-20T13:07:19;13.27;;;5.70;;
64609;SDS011;51019;46.090;6.350;2023-05-20T13:09:47;15.35;;;6.95;;
64609;SDS011;51019;46.090;6.350;2023-05-20T13:12:16;17.00;;;6.55;;
64609;SDS011;51019;46.090;6.350;2023-05-20T13:14:43;14.38;;;6.28;;
64609;SDS011;51019;46.090;6.350;2023-05-20T13:17:11;15.88;;;6.40;;
64609;SDS011;51019;46.090;6.350;2023-05-20T13:19:40;16.40;;;7.00;;
64609;SDS011;51019;46.090;6.350;2023-05-20T13:22:09;15.18;;;7.45;;
64609;SDS011;51019;46.090;6.350;2023-05-20T13:24:37;15.15;;;7.22;;
64609;SDS011;51019;46.090;6.350;2023-05-20T13:27:05;15.85;;;6.95;;
64609;SDS011;51019;46.090;6.350;2023-05-20T13:29:35;16.80;;;7.05;;
64609;SDS011;51019;46.090;6.350;2023-05-20T13:32:03;14.95;;;7.05;;
64609;SDS011;51019;46.090;6.350;2023-05-20T13:34:31;15.43;;;6.93;;
64609;SDS011;51019;46.090;6.350;2023-05-20T13:37:00;14.85;;;6.50;;
64609;SDS011;51019;46.090;6.350;2023-05-20T13:39:27;15.82;;;7.10;;
64609;SDS011;51019;46.090;6.350;2023-05-20T13:41:57;15.07;;;6.70;;
64609;SDS011;51019;46.090;6.350;2023-05-20T13:44:24;15.32;;;6.65;;
64609;SDS011;51019;46.090;6.350;2023-05-20T13:46:53;15.63;;;6.50;;
64609;SDS011;51019;46.090;6.350;2023-05-20T13:49:20;18.50;;;6.80;;
64609;SDS011;51019;46.090;6.350;2023-05-20T13:51:49;16.08;;;6.75;;
64609;SDS011;51019;46.090;6.350;2023-05-20T13:54:16;16.20;;;7.45;;
64609;SDS011;51019;46.090;6.350;2023-05-20T13:56:44;15.30;;;6.40;;
64609;SDS011;51019;46.090;6.350;2023-05-20T13:59:13;15.68;;;6.78;;
64609;SDS011;51019;46.090;6.350;2023-05-20T14:01:40;15.70;;;6.93;;
64609;SDS011;51019;46.090;6.350;2023-05-20T14:04:11;14.68;;;7.03;;
64609;SDS011;51019;46.090;6.350;2023-05-20T14:06:39;14.63;;;7.15;;
64609;SDS011;51019;46.090;6.350;2023-05-20T14:09:06;16.00;;;6.93;;
64609;SDS011;51019;46.090;6.350;2023-05-20T14:11:35;13.52;;;5.97;;
64609;SDS011;51019;46.090;6.350;2023-05-20T14:14:03;15.70;;;6.85;;
64609;SDS011;51019;46.090;6.350;2023-05-20T14:16:30;15.18;;;6.55;;
64609;SDS011;51019;46.090;6.350;2023-05-20T14:18:58;13.23;;;5.82;;
64609;SDS011;51019;46.090;6.350;2023-05-20T14:21:27;16.85;;;7.28;;
64609;SDS011;51019;46.090;6.350;2023-05-20T14:23:56;15.20;;;6.82;;
64609;SDS011;51019;46.090;6.350;2023-05-20T14:26:24;14.45;;;6.18;;
64609;SDS011;51019;46.090;6.350;2023-05-20T14:28:52;16.17;;;6.60;;
64609;SDS011;51019;46.090;6.350;2023-05-20T14:31:19;14.80;;;6.93;;
64609;SDS011;51019;46.090;6.350;2023-05-20T14:33:46;14.90;;;6.38;;
64609;SDS011;51019;46.090;6.350;2023-05-20T14:36:13;14.77;;;6.22;;
64609;SDS011;51019;46.090;6.350;2023-05-20T14:38:43;14.48;;;6.82;;
64609;SDS011;51019;46.090;6.350;2023-05-20T14:41:10;16.38;;;7.20;;